Terminal Aerodrome Forecast
Issued by NWS Charleston, WV

Current Version | Previous Version | Graphics & Text | Print | Product List | Glossary On
Versions: 1 2 3 4 5 6 7 8 9 10 11 12 13 14 15 16 17 18 19 20 21 22 23
009
FTUS41 KRLX 161505 AAA
TAFHTS
TAF AMD
KHTS 161505Z 1615/1712 VRB03KT P6SM SCT045
     FM170700 VRB03KT 4SM -SHRA BR BKN035=

USA.gov is the U.S. government's official web portal to all federal, state and local government web resources and services.